Time;durP1;ratioP1;P1;durP2;ratioP2;P2;SDS_P1;SDS_P2;PMS_P1;PMS_P2;Temp;Humidity;BMP_temperature;BMP_pressure;BME280_temperature;BME280_humidity;BME280_pressure;Samples;Min_cycle;Max_cycle;Signal;HPM_P1;HPM_P2
2021/06/11 00:00:57;;;;;;;3.03;2.75;;;24.90;43.80;;;;;;4989384;28;20574;-50
2021/06/11 00:03:23;;;;;;;4.05;3.70;;;24.90;43.70;;;;;;4991443;28;20276;-47
2021/06/11 00:05:49;;;;;;;2.63;2.42;;;24.90;43.70;;;;;;4990001;28;20200;-47
2021/06/11 00:08:15;;;;;;;3.35;3.03;;;24.90;43.80;;;;;;4989575;28;20230;-49
2021/06/11 00:10:41;;;;;;;2.97;2.78;;;24.90;43.70;;;;;;4977770;28;20207;-44
2021/06/11 00:13:07;;;;;;;2.60;2.40;;;24.90;43.70;;;;;;4991138;28;20196;-47
2021/06/11 00:15:33;;;;;;;3.40;2.90;;;24.90;43.70;;;;;;4990100;28;20254;-46
2021/06/11 00:17:59;;;;;;;3.35;2.90;;;24.90;43.80;;;;;;4990743;28;20676;-45
2021/06/11 00:20:25;;;;;;;3.35;2.92;;;24.90;43.70;;;;;;4988687;28;20258;-47
2021/06/11 00:22:51;;;;;;;3.25;2.97;;;24.90;43.70;;;;;;4991039;28;20208;-47
2021/06/11 00:25:17;;;;;;;3.10;2.80;;;24.90;43.70;;;;;;4990107;28;20234;-46
2021/06/11 00:27:43;;;;;;;3.08;2.78;;;24.90;43.70;;;;;;4990080;28;20580;-46
2021/06/11 00:30:09;;;;;;;3.22;2.83;;;24.90;43.70;;;;;;4990163;28;20234;-47
2021/06/11 00:32:35;;;;;;;3.03;2.83;;;24.90;43.70;;;;;;4990455;28;20215;-48
2021/06/11 00:35:01;;;;;;;3.30;3.08;;;24.90;43.70;;;;;;4989984;28;20208;-46
2021/06/11 00:37:27;;;;;;;3.20;2.70;;;24.90;43.80;;;;;;4989218;28;20290;-46
2021/06/11 00:39:53;;;;;;;3.03;2.72;;;24.90;43.80;;;;;;4989735;28;20567;-47
2021/06/11 00:42:19;;;;;;;2.85;2.65;;;24.90;43.70;;;;;;4989861;28;20200;-45
2021/06/11 00:44:45;;;;;;;2.88;2.67;;;24.90;43.80;;;;;;4988668;28;20727;-47
2021/06/11 00:47:11;;;;;;;3.13;2.88;;;24.90;43.70;;;;;;4987202;28;20314;-50
2021/06/11 00:49:37;;;;;;;3.30;3.10;;;24.90;43.70;;;;;;4990315;28;20212;-51
2021/06/11 00:52:05;;;;;;;2.80;2.60;;;24.90;43.70;;;;;;4990365;28;20554;-49
2021/06/11 00:54:31;;;;;;;3.25;3.05;;;24.90;43.70;;;;;;4988356;28;20211;-50
2021/06/11 00:56:57;;;;;;;3.00;2.80;;;24.90;43.70;;;;;;4991756;28;20227;-45
2021/06/11 00:59:23;;;;;;;2.75;2.53;;;24.90;43.70;;;;;;4994351;28;20231;-49
2021/06/11 01:01:49;;;;;;;3.15;2.88;;;24.90;43.70;;;;;;4993520;28;20206;-47
2021/06/11 01:04:15;;;;;;;3.30;3.00;;;24.90;43.70;;;;;;4994766;28;20254;-49
2021/06/11 01:06:41;;;;;;;3.15;2.95;;;24.90;43.80;;;;;;4993242;28;20652;-45
2021/06/11 01:09:07;;;;;;;4.72;3.10;;;24.90;43.70;;;;;;4994388;28;20266;-49
2021/06/11 01:11:33;;;;;;;2.75;2.55;;;24.90;43.70;;;;;;4989490;28;20235;-45
2021/06/11 01:13:59;;;;;;;2.63;2.53;;;24.90;43.70;;;;;;4992057;28;20240;-49
2021/06/11 01:16:25;;;;;;;2.83;2.63;;;24.90;43.80;;;;;;4993588;28;20640;-50
2021/06/11 01:18:51;;;;;;;2.72;2.53;;;24.90;43.70;;;;;;4993333;28;20231;-51
2021/06/11 01:21:17;;;;;;;2.90;2.70;;;24.90;43.70;;;;;;4992674;28;20200;-51
2021/06/11 01:23:43;;;;;;;2.83;2.63;;;24.90;43.70;;;;;;4990983;28;20291;-50
2021/06/11 01:26:09;;;;;;;2.70;2.50;;;24.90;43.70;;;;;;4993066;28;20216;-49
2021/06/11 01:28:35;;;;;;;2.90;2.70;;;24.90;43.80;;;;;;4992424;28;20652;-50
2021/06/11 01:31:01;;;;;;;3.10;2.85;;;24.90;43.70;;;;;;4994413;28;20204;-46
2021/06/11 01:33:27;;;;;;;3.35;3.05;;;24.90;43.70;;;;;;4984809;28;20214;-47
2021/06/11 01:35:53;;;;;;;3.10;2.90;;;24.90;43.70;;;;;;4990927;28;20204;-54
2021/06/11 01:38:19;;;;;;;2.70;2.50;;;24.90;43.70;;;;;;4991887;28;20270;-46
2021/06/11 01:40:45;;;;;;;2.92;2.72;;;24.90;43.80;;;;;;4993994;28;20609;-44
2021/06/11 01:43:11;;;;;;;2.78;2.58;;;24.90;43.70;;;;;;4989554;28;20210;-47
2021/06/11 01:45:37;;;;;;;3.15;2.47;;;24.90;43.70;;;;;;4992126;28;20200;-44
2021/06/11 01:48:03;;;;;;;2.95;2.75;;;24.90;43.70;;;;;;4992082;28;20235;-50
2021/06/11 01:50:29;;;;;;;3.17;2.50;;;24.90;43.70;;;;;;4993260;28;20200;-48
2021/06/11 01:52:55;;;;;;;2.67;2.47;;;24.90;43.70;;;;;;4990800;28;20207;-48
2021/06/11 01:55:21;;;;;;;2.90;2.70;;;24.90;43.70;;;;;;4991052;28;20208;-45
2021/06/11 01:57:47;;;;;;;2.85;2.63;;;24.80;43.60;;;;;;4989749;28;20228;-48
2021/06/11 02:00:13;;;;;;;2.78;2.50;;;24.90;43.70;;;;;;4993414;28;20214;-46
2021/06/11 02:02:39;;;;;;;2.88;2.67;;;24.90;43.80;;;;;;4993320;28;20219;-48
2021/06/11 02:05:05;;;;;;;2.70;2.50;;;24.90;43.70;;;;;;4990017;28;20216;-47
2021/06/11 02:07:31;;;;;;;2.95;2.75;;;24.90;43.80;;;;;;4989161;28;20588;-48
2021/06/11 02:09:57;;;;;;;3.60;3.30;;;24.90;43.70;;;;;;4991377;28;20215;-46
2021/06/11 02:12:23;;;;;;;2.88;2.67;;;24.90;43.70;;;;;;4988742;28;20284;-49
2021/06/11 02:14:49;;;;;;;2.63;2.42;;;24.90;43.70;;;;;;4988229;28;20207;-49
2021/06/11 02:17:15;;;;;;;2.75;2.55;;;24.90;43.70;;;;;;4989380;28;20232;-50
2021/06/11 02:19:41;;;;;;;3.60;3.00;;;24.90;43.70;;;;;;4991532;28;20204;-50
2021/06/11 02:22:07;;;;;;;3.55;2.65;;;24.90;43.80;;;;;;4991348;28;20605;-47
2021/06/11 02:24:33;;;;;;;2.65;2.45;;;24.80;43.60;;;;;;4991117;28;20312;-50
2021/06/11 02:26:59;;;;;;;2.70;2.50;;;24.90;43.70;;;;;;4990263;28;20234;-48
2021/06/11 02:29:25;;;;;;;2.83;2.63;;;24.90;43.70;;;;;;4988565;28;20203;-44
2021/06/11 02:31:51;;;;;;;2.80;2.60;;;24.90;43.70;;;;;;4993064;28;20207;-47
2021/06/11 02:34:17;;;;;;;2.60;2.40;;;24.90;43.90;;;;;;4992216;28;20852;-49
2021/06/11 02:36:43;;;;;;;2.88;2.67;;;24.90;43.70;;;;;;4992407;28;20255;-47
2021/06/11 02:39:09;;;;;;;3.03;2.83;;;24.90;43.70;;;;;;4989752;28;20331;-51
2021/06/11 02:41:35;;;;;;;2.58;2.38;;;24.90;43.70;;;;;;4991864;28;20208;-48
2021/06/11 02:44:01;;;;;;;4.63;2.70;;;24.90;43.70;;;;;;4988214;28;20208;-48
2021/06/11 02:46:27;;;;;;;3.83;2.50;;;24.90;43.70;;;;;;4992713;28;20228;-58
2021/06/11 02:48:53;;;;;;;2.60;2.40;;;24.90;43.70;;;;;;4988127;28;20207;-48
2021/06/11 02:51:19;;;;;;;2.63;2.38;;;24.90;43.70;;;;;;4992304;28;20203;-45
2021/06/11 02:53:45;;;;;;;2.65;2.45;;;24.90;43.70;;;;;;4990725;28;20232;-48
2021/06/11 02:56:11;;;;;;;2.67;2.47;;;24.90;43.70;;;;;;4990387;28;20235;-51
2021/06/11 02:58:37;;;;;;;2.70;2.50;;;24.90;43.70;;;;;;4988286;28;20231;-45
2021/06/11 03:01:03;;;;;;;2.63;2.42;;;24.90;43.70;;;;;;4990532;28;20215;-50
2021/06/11 03:03:29;;;;;;;2.60;2.40;;;24.90;43.70;;;;;;4992232;28;20204;-49
2021/06/11 03:05:55;;;;;;;2.65;2.45;;;24.90;43.70;;;;;;4987596;28;20227;-49
2021/06/11 03:08:21;;;;;;;2.60;2.40;;;24.90;43.70;;;;;;4991589;28;20247;-51
2021/06/11 03:10:48;;;;;;;2.58;2.30;;;24.90;43.70;;;;;;4988460;28;20200;-47
2021/06/11 03:13:14;;;;;;;2.92;2.70;;;24.90;43.70;;;;;;4989471;28;20202;-48
2021/06/11 03:15:40;;;;;;;2.70;2.50;;;24.90;43.70;;;;;;4989609;28;20199;-47
2021/06/11 03:18:06;;;;;;;2.97;2.67;;;24.80;43.60;;;;;;4987311;28;20227;-49
2021/06/11 03:20:32;;;;;;;2.50;2.30;;;24.90;43.70;;;;;;4990260;28;20196;-49
2021/06/11 03:22:58;;;;;;;2.30;2.20;;;24.90;43.80;;;;;;4991348;28;20532;-50
2021/06/11 03:25:24;;;;;;;2.65;2.40;;;24.90;43.70;;;;;;4990063;28;20226;-52
2021/06/11 03:27:50;;;;;;;2.65;2.45;;;24.80;43.70;;;;;;4987982;28;20644;-47
2021/06/11 03:30:16;;;;;;;2.45;2.25;;;24.90;43.70;;;;;;4989583;28;20206;-50
2021/06/11 03:32:42;;;;;;;3.65;2.55;;;24.90;43.70;;;;;;4990762;28;20204;-45
2021/06/11 03:35:08;;;;;;;2.50;2.30;;;24.90;43.80;;;;;;4990812;28;20672;-45
2021/06/11 03:37:34;;;;;;;2.85;2.55;;;24.90;43.70;;;;;;4990644;28;20220;-51
2021/06/11 03:40:00;;;;;;;2.78;2.58;;;24.90;43.70;;;;;;4990450;28;20235;-46
2021/06/11 03:42:26;;;;;;;2.90;2.70;;;24.90;43.80;;;;;;4986225;28;20204;-47
2021/06/11 03:44:52;;;;;;;2.65;2.45;;;24.90;43.70;;;;;;4991863;28;20266;-51
2021/06/11 03:47:18;;;;;;;3.08;2.83;;;24.90;43.80;;;;;;4989215;28;20597;-49
2021/06/11 03:49:44;;;;;;;2.00;1.90;;;24.90;43.70;;;;;;4990806;28;20204;-48
2021/06/11 03:52:10;;;;;;;2.60;2.40;;;24.90;43.70;;;;;;4988828;28;20200;-49
2021/06/11 03:54:36;;;;;;;3.40;2.47;;;24.80;43.80;;;;;;4990755;28;20741;-55
2021/06/11 03:57:02;;;;;;;2.55;2.35;;;24.90;43.70;;;;;;4989198;28;20224;-45
2021/06/11 03:59:28;;;;;;;3.20;2.90;;;24.90;43.70;;;;;;4988356;28;20204;-49
2021/06/11 04:01:54;;;;;;;2.53;2.30;;;24.90;44.00;;;;;;4990184;28;20226;-50
2021/06/11 04:04:20;;;;;;;2.50;2.15;;;24.90;44.10;;;;;;4989886;28;20261;-45
2021/06/11 04:06:46;;;;;;;3.10;2.40;;;24.90;44.10;;;;;;4989080;28;20223;-49
2021/06/11 04:09:12;;;;;;;4.03;3.08;;;24.80;44.00;;;;;;4990291;28;20207;-47
2021/06/11 04:11:38;;;;;;;3.55;2.50;;;24.90;44.10;;;;;;4987298;28;20211;-51
2021/06/11 04:14:04;;;;;;;2.83;2.35;;;24.90;44.10;;;;;;4989916;28;20637;-49
2021/06/11 04:16:29;;;;;;;3.13;2.60;;;24.90;44.10;;;;;;4988060;28;20260;-47
2021/06/11 04:18:55;;;;;;;3.55;2.97;;;24.90;44.10;;;;;;4990869;28;20653;-52
2021/06/11 04:21:21;;;;;;;2.92;2.65;;;24.90;44.20;;;;;;4989824;28;20199;-49
2021/06/11 04:23:47;;;;;;;2.58;2.35;;;24.80;44.00;;;;;;4989097;28;20215;-47
2021/06/11 04:26:13;;;;;;;2.80;2.40;;;24.90;44.10;;;;;;4987564;28;20587;-47
2021/06/11 04:28:39;;;;;;;4.18;2.60;;;24.90;44.10;;;;;;4988701;28;20215;-48
2021/06/11 04:31:05;;;;;;;3.22;2.22;;;24.80;44.00;;;;;;4989255;28;20815;-46
2021/06/11 04:33:31;;;;;;;4.00;2.40;;;24.90;44.10;;;;;;4986472;28;20199;-46
2021/06/11 04:35:57;;;;;;;2.53;2.17;;;24.90;44.10;;;;;;4988099;28;20593;-52
2021/06/11 04:38:23;;;;;;;2.40;2.20;;;24.90;44.10;;;;;;4988229;28;20227;-55
2021/06/11 04:40:49;;;;;;;3.15;2.78;;;24.80;44.00;;;;;;4990637;28;20615;-50
2021/06/11 04:43:15;;;;;;;3.25;2.30;;;24.90;44.10;;;;;;4982060;28;20215;-49
2021/06/11 04:45:41;;;;;;;2.33;2.13;;;24.80;44.00;;;;;;4976401;28;20572;-46
2021/06/11 04:48:07;;;;;;;2.58;2.33;;;24.90;44.10;;;;;;4987195;28;20218;-52
2021/06/11 04:50:33;;;;;;;2.47;2.28;;;24.90;44.10;;;;;;4979807;28;20201;-56
2021/06/11 04:52:59;;;;;;;2.88;2.20;;;24.90;44.70;;;;;;4984331;28;20211;-50
2021/06/11 04:55:25;;;;;;;2.58;2.38;;;24.80;44.00;;;;;;4991063;28;20351;-51
2021/06/11 04:57:52;;;;;;;2.60;2.40;;;24.90;44.10;;;;;;4984379;28;20230;-48
2021/06/11 05:00:18;;;;;;;3.50;2.40;;;24.90;44.00;;;;;;4985285;28;20211;-49
2021/06/11 05:02:44;;;;;;;2.60;2.40;;;24.90;44.00;;;;;;4989720;28;20199;-50
2021/06/11 05:05:10;;;;;;;2.60;2.40;;;24.90;44.00;;;;;;4986158;28;20212;-47
2021/06/11 05:07:36;;;;;;;2.58;2.38;;;24.90;44.10;;;;;;4989342;28;20705;-54
2021/06/11 05:10:02;;;;;;;3.78;2.40;;;24.90;44.10;;;;;;4988804;28;20201;-50
2021/06/11 05:12:28;;;;;;;2.60;2.40;;;24.90;44.10;;;;;;4991154;28;20683;-51
2021/06/11 05:14:54;;;;;;;3.00;2.35;;;24.90;44.00;;;;;;4988388;28;20203;-51
2021/06/11 05:17:20;;;;;;;3.35;2.38;;;24.90;44.00;;;;;;4989400;28;20270;-48
2021/06/11 05:19:46;;;;;;;2.30;2.10;;;24.90;44.00;;;;;;4987947;28;20213;-48
2021/06/11 05:22:12;;;;;;;2.53;2.28;;;24.90;44.00;;;;;;4990872;28;20211;-47
2021/06/11 05:24:38;;;;;;;2.65;2.42;;;24.90;44.00;;;;;;4988425;28;20212;-46
2021/06/11 05:27:04;;;;;;;2.65;2.45;;;24.90;44.00;;;;;;4985976;28;20294;-48
2021/06/11 05:29:30;;;;;;;2.20;2.00;;;24.90;44.10;;;;;;4988393;28;20736;-48
2021/06/11 05:31:56;;;;;;;4.15;2.60;;;24.90;44.00;;;;;;4988024;28;20215;-51
2021/06/11 05:34:22;;;;;;;2.70;2.50;;;24.90;44.70;;;;;;4991133;28;20200;-53
2021/06/11 05:36:48;;;;;;;2.30;2.10;;;24.90;44.00;;;;;;4989473;28;20223;-53
2021/06/11 05:39:14;;;;;;;2.30;2.10;;;24.90;43.90;;;;;;4990210;28;20641;-52
2021/06/11 05:41:40;;;;;;;2.38;2.17;;;24.90;43.90;;;;;;4990231;28;20212;-54
2021/06/11 05:44:06;;;;;;;2.50;2.30;;;24.90;43.90;;;;;;4991625;28;20204;-48
2021/06/11 05:46:31;;;;;;;4.03;2.33;;;24.80;43.90;;;;;;4990320;28;20224;-53
2021/06/11 05:48:57;;;;;;;2.88;2.63;;;24.90;43.90;;;;;;4990118;28;20215;-49
2021/06/11 05:51:23;;;;;;;2.30;2.10;;;24.80;43.90;;;;;;4975749;28;20267;-46
2021/06/11 05:53:49;;;;;;;2.22;2.13;;;24.90;43.90;;;;;;4991414;28;20668;-53
2021/06/11 05:56:15;;;;;;;2.90;2.70;;;24.90;43.90;;;;;;4993781;28;20232;-51
2021/06/11 05:58:41;;;;;;;3.40;2.60;;;24.90;43.90;;;;;;4991216;28;20334;-50
2021/06/11 06:01:07;;;;;;;2.42;2.22;;;24.80;43.90;;;;;;4991331;28;20204;-52
2021/06/11 06:03:33;;;;;;;2.72;2.20;;;24.90;43.90;;;;;;4992360;28;20219;-52
2021/06/11 06:05:59;;;;;;;2.58;2.38;;;24.90;43.90;;;;;;4989845;28;20313;-54
2021/06/11 06:08:25;;;;;;;2.42;2.28;;;24.90;43.90;;;;;;4990158;28;20204;-51
2021/06/11 06:10:51;;;;;;;2.83;2.30;;;24.90;43.90;;;;;;4992411;28;20235;-52
2021/06/11 06:13:17;;;;;;;2.50;2.30;;;24.90;43.90;;;;;;4988832;28;20207;-50
2021/06/11 06:15:43;;;;;;;2.70;2.30;;;24.90;43.90;;;;;;4991353;28;20576;-51
2021/06/11 06:18:09;;;;;;;2.60;2.38;;;24.90;43.70;;;;;;4985506;28;20263;-52
2021/06/11 06:20:36;;;;;;;2.97;2.67;;;24.90;43.80;;;;;;4984153;28;20203;-55
2021/06/11 06:23:02;;;;;;;3.47;2.20;;;24.90;43.90;;;;;;4991084;28;20204;-49
2021/06/11 06:25:28;;;;;;;2.42;2.13;;;24.90;43.80;;;;;;4991866;28;20272;-53
2021/06/11 06:27:54;;;;;;;3.28;2.15;;;24.80;43.70;;;;;;4990167;28;20404;-55
2021/06/11 06:30:22;;;;;;;3.60;2.42;;;24.90;43.80;;;;;;4990931;28;20196;-55
2021/06/11 06:32:48;;;;;;;2.85;2.45;;;24.90;43.70;;;;;;4992351;28;20243;-51
2021/06/11 06:35:14;;;;;;;2.60;2.40;;;24.90;43.80;;;;;;4992162;28;20704;-53
2021/06/11 06:37:40;;;;;;;2.40;2.20;;;24.90;43.70;;;;;;4992102;28;20224;-56
2021/06/11 06:40:07;;;;;;;2.53;2.33;;;24.90;43.80;;;;;;4992412;28;20540;-47
2021/06/11 06:42:33;;;;;;;3.20;2.30;;;24.80;43.60;;;;;;4989508;28;20258;-53
2021/06/11 06:44:59;;;;;;;2.63;2.42;;;24.90;43.80;;;;;;4992160;28;20521;-54
2021/06/11 06:47:25;;;;;;;2.88;2.55;;;24.90;43.70;;;;;;4988565;28;20219;-48
2021/06/11 06:49:51;;;;;;;2.45;2.30;;;24.90;43.80;;;;;;4987028;28;20238;-56
2021/06/11 06:52:17;;;;;;;2.55;2.20;;;24.90;43.70;;;;;;4991562;28;20204;-55
2021/06/11 06:54:43;;;;;;;3.10;2.20;;;24.90;43.70;;;;;;4988698;28;20200;-49
2021/06/11 06:57:09;;;;;;;2.47;2.28;;;24.90;43.80;;;;;;4986800;28;20231;-49
2021/06/11 06:59:35;;;;;;;8.90;3.05;;;24.90;44.20;;;;;;4991107;28;20208;-47
2021/06/11 07:02:01;;;;;;;4.55;2.72;;;25.00;45.50;;;;;;4989129;28;20211;-46
2021/06/11 07:04:27;;;;;;;4.32;3.00;;;25.00;44.70;;;;;;4987524;28;20243;-47
2021/06/11 07:06:53;;;;;;;4.68;2.78;;;25.00;43.80;;;;;;4989291;28;20222;-49
2021/06/11 07:09:19;;;;;;;2.95;2.20;;;25.10;44.60;;;;;;4991330;28;20208;-52
2021/06/11 07:11:47;;;;;;;4.63;2.63;;;25.10;43.80;;;;;;4990001;28;20207;-48
2021/06/11 07:14:13;;;;;;;3.53;2.42;;;25.10;44.70;;;;;;4984537;28;20200;-49
2021/06/11 07:16:39;;;;;;;6.75;3.55;;;25.10;44.00;;;;;;4988149;28;20239;-49
2021/06/11 07:19:05;;;;;;;9.60;3.50;;;25.10;43.80;;;;;;4988795;28;20700;-52
2021/06/11 07:21:31;;;;;;;8.60;3.15;;;25.10;45.90;;;;;;4991330;28;20246;-50
2021/06/11 07:23:57;;;;;;;12.60;3.58;;;25.10;46.00;;;;;;4991015;28;20555;-51
2021/06/11 07:26:23;;;;;;;8.75;3.17;;;25.10;46.70;;;;;;4989810;28;20231;-49
2021/06/11 07:28:49;;;;;;;8.15;3.55;;;25.00;47.50;;;;;;4989376;28;20203;-49
2021/06/11 07:31:15;;;;;;;5.25;3.25;;;25.00;47.00;;;;;;4990720;28;20262;-51
2021/06/11 07:33:41;;;;;;;8.45;3.90;;;25.00;46.70;;;;;;4989832;28;20819;-54
2021/06/11 07:36:07;;;;;;;8.05;3.08;;;25.10;46.50;;;;;;4990268;28;20227;-51
2021/06/11 07:38:33;;;;;;;9.93;2.97;;;25.10;46.80;;;;;;4982573;28;20605;-47
2021/06/11 07:40:59;;;;;;;8.05;3.55;;;25.10;46.30;;;;;;4991763;28;20211;-49
2021/06/11 07:43:26;;;;;;;9.90;4.07;;;25.10;46.30;;;;;;4987328;28;20955;-52
2021/06/11 07:45:52;;;;;;;10.07;4.75;;;24.80;45.60;;;;;;4982906;28;20759;-51
2021/06/11 07:48:18;;;;;;;5.68;3.90;;;24.20;45.60;;;;;;4989034;28;20200;-51
2021/06/11 07:50:44;;;;;;;4.85;3.75;;;24.30;43.80;;;;;;4982651;28;20778;-52
2021/06/11 07:53:10;;;;;;;4.55;4.03;;;23.30;41.50;;;;;;4987931;28;20207;-51
2021/06/11 07:55:36;;;;;;;4.63;4.22;;;22.60;40.50;;;;;;4987003;28;20220;-53
2021/06/11 07:58:02;;;;;;;4.18;3.88;;;21.90;41.90;;;;;;4982800;28;20239;-47
2021/06/11 08:00:29;;;;;;;4.78;3.95;;;22.30;42.30;;;;;;4987453;28;20200;-49
2021/06/11 08:02:55;;;;;;;4.38;3.63;;;23.00;42.00;;;;;;4990035;28;20208;-49
2021/06/11 08:05:21;;;;;;;5.13;3.97;;;23.40;42.40;;;;;;4987748;28;20786;-45
2021/06/11 08:07:47;;;;;;;3.65;3.35;;;23.90;42.80;;;;;;4988708;28;20211;-48
2021/06/11 08:10:13;;;;;;;4.90;3.55;;;24.20;43.00;;;;;;4986467;28;20368;-47
2021/06/11 08:12:39;;;;;;;3.65;3.45;;;24.40;42.80;;;;;;4984388;28;20533;-50
2021/06/11 08:15:05;;;;;;;3.50;3.20;;;24.50;43.40;;;;;;4980194;28;20235;-52
2021/06/11 08:17:31;;;;;;;3.42;3.13;;;24.60;43.60;;;;;;4978536;28;20223;-48
2021/06/11 08:19:57;;;;;;;3.25;3.05;;;24.70;43.50;;;;;;4990307;28;20598;-53
2021/06/11 08:22:23;;;;;;;3.78;3.08;;;24.70;44.10;;;;;;4989594;28;20203;-54
2021/06/11 08:24:49;;;;;;;12.10;3.55;;;24.70;43.70;;;;;;4989640;28;20286;-52
2021/06/11 08:27:14;;;;;;;9.07;3.13;;;24.90;44.90;;;;;;4986170;28;20278;-48
2021/06/11 08:29:41;;;;;;;8.90;4.45;;;24.80;44.80;;;;;;4989444;28;20653;-49
2021/06/11 08:32:07;;;;;;;6.97;3.45;;;24.80;45.60;;;;;;4991687;28;20302;-52
2021/06/11 08:34:36;;;;;;;5.53;3.60;;;24.80;45.70;;;;;;4990075;28;20688;-49
2021/06/11 08:37:02;;;;;;;4.30;3.17;;;24.80;45.30;;;;;;4987297;28;20235;-48
2021/06/11 08:39:28;;;;;;;4.60;2.85;;;24.80;45.40;;;;;;4989823;28;20204;-52
2021/06/11 08:41:54;;;;;;;2.70;2.50;;;24.80;45.30;;;;;;4990949;28;20204;-47
2021/06/11 08:44:20;;;;;;;2.97;2.75;;;24.90;45.40;;;;;;4982519;28;20223;-48
2021/06/11 08:46:46;;;;;;;3.83;2.83;;;24.90;45.30;;;;;;4979983;28;20262;-48
2021/06/11 08:49:12;;;;;;;3.17;2.70;;;24.90;45.50;;;;;;4984584;28;20326;-49
2021/06/11 08:51:38;;;;;;;4.85;2.95;;;24.90;44.90;;;;;;4982049;28;20772;-51
2021/06/11 08:54:04;;;;;;;3.15;2.85;;;24.90;45.50;;;;;;4991089;28;20207;-50
2021/06/11 08:56:30;;;;;;;3.22;2.80;;;24.90;45.80;;;;;;4991534;28;20207;-50
2021/06/11 08:58:55;;;;;;;6.03;2.85;;;24.90;45.80;;;;;;4989912;28;20286;-48
2021/06/11 09:01:21;;;;;;;4.95;2.63;;;24.90;45.60;;;;;;4990306;28;20204;-50
2021/06/11 09:03:47;;;;;;;3.88;3.40;;;24.90;45.60;;;;;;4992421;28;20210;-49
2021/06/11 09:06:14;;;;;;;3.67;2.60;;;24.90;45.20;;;;;;4990657;28;20234;-49
2021/06/11 09:08:40;;;;;;;2.90;2.70;;;25.00;45.70;;;;;;4990324;28;20215;-49
2021/06/11 09:11:06;;;;;;;5.63;2.33;;;25.00;45.20;;;;;;4989971;28;20254;-53
2021/06/11 09:13:32;;;;;;;4.80;2.50;;;25.00;45.40;;;;;;4990738;28;20203;-48
2021/06/11 09:15:58;;;;;;;2.78;2.50;;;25.00;45.30;;;;;;4991148;28;20238;-46
2021/06/11 09:18:24;;;;;;;2.97;2.63;;;24.90;45.10;;;;;;4994192;28;20231;-50
2021/06/11 09:20:50;;;;;;;2.85;2.65;;;25.00;45.30;;;;;;4995248;28;20207;-49
2021/06/11 09:23:16;;;;;;;2.28;2.17;;;24.90;45.00;;;;;;4985847;28;20216;-50
2021/06/11 09:25:44;;;;;;;2.35;2.00;;;25.00;45.10;;;;;;4992864;28;20228;-51
2021/06/11 09:28:10;;;;;;;2.72;2.10;;;25.00;44.80;;;;;;4993796;28;20207;-49
2021/06/11 09:30:37;;;;;;;2.70;2.10;;;25.00;45.00;;;;;;4995424;28;20203;-52
2021/06/11 09:33:03;;;;;;;2.53;2.10;;;25.00;44.70;;;;;;4992491;28;20254;-50
2021/06/11 09:35:29;;;;;;;2.95;2.20;;;25.00;44.90;;;;;;4995470;28;20253;-48
2021/06/11 09:37:55;;;;;;;2.35;1.80;;;25.00;44.80;;;;;;4994312;28;20319;-47
2021/06/11 09:40:21;;;;;;;2.63;2.28;;;25.00;44.50;;;;;;4995081;28;20226;-50
2021/06/11 09:42:49;;;;;;;4.45;2.35;;;25.00;44.60;;;;;;4993377;28;20204;-52
2021/06/11 09:45:15;;;;;;;2.03;1.92;;;25.00;44.50;;;;;;4995325;28;20710;-51
2021/06/11 09:47:41;;;;;;;2.05;1.83;;;25.00;44.50;;;;;;4991662;28;20657;-49
2021/06/11 09:50:07;;;;;;;3.33;2.20;;;25.10;44.70;;;;;;4994788;28;20204;-48
2021/06/11 09:52:36;;;;;;;3.55;2.63;;;25.10;44.80;;;;;;4992937;28;20218;-49
2021/06/11 09:55:02;;;;;;;3.88;2.40;;;25.10;45.00;;;;;;4992096;28;20258;-51
2021/06/11 09:57:33;;;;;;;4.53;2.60;;;25.10;45.30;;;;;;4994404;28;20289;-51
2021/06/11 09:59:59;;;;;;;3.42;2.30;;;25.10;45.30;;;;;;4991221;28;20355;-51
2021/06/11 10:02:25;;;;;;;2.95;2.33;;;25.10;45.60;;;;;;4994632;28;20278;-50
2021/06/11 10:04:51;;;;;;;2.67;2.38;;;25.10;45.60;;;;;;4991990;28;20235;-51
2021/06/11 10:07:17;;;;;;;3.45;2.10;;;25.10;45.80;;;;;;4990342;28;20211;-52
2021/06/11 10:09:43;;;;;;;2.50;2.03;;;25.10;45.90;;;;;;4987739;28;20298;-47
2021/06/11 10:12:10;;;;;;;2.55;2.22;;;25.10;46.30;;;;;;4990833;28;20676;-52
2021/06/11 10:14:36;;;;;;;2.60;2.30;;;25.10;46.70;;;;;;4986266;28;20223;-48
2021/06/11 10:17:02;;;;;;;4.40;2.42;;;25.10;46.10;;;;;;4982964;28;20216;-49
2021/06/11 10:19:28;;;;;;;3.70;2.20;;;25.10;46.30;;;;;;4984125;28;20667;-51
2021/06/11 10:21:54;;;;;;;3.30;2.20;;;25.10;46.40;;;;;;4984240;28;20223;-52
2021/06/11 10:24:21;;;;;;;3.53;2.22;;;25.10;46.10;;;;;;4989424;28;20227;-50
2021/06/11 10:26:47;;;;;;;4.40;2.50;;;25.10;46.10;;;;;;4987736;28;20248;-50
2021/06/11 10:29:12;;;;;;;3.75;2.40;;;25.10;46.10;;;;;;4982430;28;20278;-49
2021/06/11 10:31:39;;;;;;;2.33;2.13;;;25.10;46.00;;;;;;4990717;28;20204;-53
2021/06/11 10:34:05;;;;;;;3.53;2.33;;;25.10;46.10;;;;;;4987952;28;20636;-49
2021/06/11 10:36:32;;;;;;;4.55;2.13;;;25.10;46.30;;;;;;4977136;28;20210;-51
2021/06/11 10:38:58;;;;;;;3.30;2.00;;;25.10;46.30;;;;;;4989881;28;20342;-48
2021/06/11 10:41:24;;;;;;;2.92;2.30;;;25.10;46.60;;;;;;4989784;28;20228;-48
2021/06/11 10:43:49;;;;;;;4.65;2.50;;;25.10;46.60;;;;;;4985561;28;21089;-52
2021/06/11 10:46:15;;;;;;;3.03;2.28;;;25.10;46.30;;;;;;4992487;28;20262;-55
2021/06/11 10:48:41;;;;;;;1.90;1.80;;;25.10;46.30;;;;;;4990989;28;20214;-54
2021/06/11 10:51:07;;;;;;;4.70;2.08;;;25.10;46.30;;;;;;4990377;28;20208;-53
2021/06/11 10:53:36;;;;;;;3.08;1.98;;;25.10;46.20;;;;;;4991770;28;20290;-51
2021/06/11 10:56:02;;;;;;;3.13;2.05;;;25.10;46.30;;;;;;4991916;28;20208;-52
2021/06/11 10:58:28;;;;;;;2.25;2.00;;;25.10;46.20;;;;;;4992202;28;20313;-53
2021/06/11 11:00:54;;;;;;;2.95;2.20;;;25.10;46.40;;;;;;4992661;28;20212;-51
2021/06/11 11:03:20;;;;;;;3.20;2.22;;;25.10;47.60;;;;;;4988753;28;20204;-49
2021/06/11 11:05:46;;;;;;;3.83;2.45;;;25.10;47.10;;;;;;4991174;28;20200;-48
2021/06/11 11:08:12;;;;;;;2.53;2.30;;;25.10;46.40;;;;;;4991877;28;20199;-48
2021/06/11 11:10:39;;;;;;;2.92;2.67;;;25.20;46.80;;;;;;4991261;28;20196;-49
2021/06/11 11:13:06;;;;;;;5.43;2.97;;;25.20;46.50;;;;;;4990838;28;20208;-50
2021/06/11 11:15:32;;;;;;;3.97;3.25;;;25.20;46.10;;;;;;4989785;28;20219;-49
2021/06/11 11:17:59;;;;;;;3.95;3.55;;;25.20;46.30;;;;;;4990356;28;20228;-50
2021/06/11 11:20:25;;;;;;;4.47;3.20;;;25.20;46.60;;;;;;4981948;28;20273;-51
2021/06/11 11:22:51;;;;;;;3.35;3.05;;;25.20;46.80;;;;;;4992686;28;20204;-51
2021/06/11 11:25:17;;;;;;;4.60;3.50;;;25.20;46.20;;;;;;4991812;28;20224;-47
2021/06/11 11:27:43;;;;;;;3.30;3.00;;;25.20;46.50;;;;;;4991432;28;20200;-49
2021/06/11 11:30:10;;;;;;;3.72;3.42;;;25.20;46.50;;;;;;4989704;28;20208;-47
2021/06/11 11:32:36;;;;;;;3.40;3.10;;;25.20;46.40;;;;;;4991233;28;20199;-49
2021/06/11 11:35:02;;;;;;;3.78;3.10;;;25.20;46.50;;;;;;4992089;28;20223;-47
2021/06/11 11:37:28;;;;;;;3.47;3.17;;;25.20;46.20;;;;;;4991899;28;20702;-50
2021/06/11 11:39:54;;;;;;;5.60;3.60;;;25.20;46.30;;;;;;4991941;28;20260;-48
2021/06/11 11:42:20;;;;;;;4.30;2.95;;;25.20;46.30;;;;;;4989315;28;20283;-48
2021/06/11 11:44:46;;;;;;;3.97;3.58;;;25.20;46.20;;;;;;4992053;28;20220;-48
2021/06/11 11:47:12;;;;;;;3.47;3.17;;;25.20;46.00;;;;;;4990624;28;20212;-50
2021/06/11 11:49:38;;;;;;;5.13;3.70;;;25.20;46.00;;;;;;4988667;28;20211;-47
2021/06/11 11:52:04;;;;;;;3.38;3.17;;;25.20;46.00;;;;;;4992627;28;20231;-51
2021/06/11 11:54:31;;;;;;;3.72;3.42;;;25.10;45.50;;;;;;4991020;28;20218;-50
2021/06/11 11:56:57;;;;;;;3.63;3.33;;;25.10;45.60;;;;;;4992028;28;20231;-49
2021/06/11 11:59:23;;;;;;;3.15;2.92;;;25.10;45.40;;;;;;4990781;28;20704;-53
2021/06/11 12:01:49;;;;;;;3.45;3.00;;;25.10;44.90;;;;;;4988406;28;20204;-53
2021/06/11 12:04:15;;;;;;;3.88;3.45;;;25.10;43.90;;;;;;4991151;28;20284;-52
2021/06/11 12:06:41;;;;;;;3.83;3.53;;;25.10;44.10;;;;;;4988366;28;20586;-53
2021/06/11 12:09:07;;;;;;;3.75;2.78;;;25.10;44.50;;;;;;4983904;28;20205;-52
2021/06/11 12:11:33;;;;;;;3.40;3.20;;;25.10;44.80;;;;;;4974810;28;20205;-53
2021/06/11 12:13:59;;;;;;;3.30;3.10;;;25.10;44.60;;;;;;4987689;28;20228;-53
2021/06/11 12:16:25;;;;;;;3.45;3.15;;;25.10;44.30;;;;;;4983404;28;20200;-51
2021/06/11 12:18:51;;;;;;;2.95;2.75;;;25.10;44.20;;;;;;4986187;28;21198;-49
2021/06/11 12:21:17;;;;;;;3.83;3.10;;;25.10;44.10;;;;;;4990340;28;20208;-54
2021/06/11 12:23:43;;;;;;;3.47;3.17;;;25.10;44.50;;;;;;4990204;28;20231;-49
2021/06/11 12:26:09;;;;;;;3.85;3.45;;;25.10;44.20;;;;;;4989972;28;20203;-52
2021/06/11 12:28:35;;;;;;;3.08;2.88;;;25.10;43.80;;;;;;4986236;28;20334;-53
2021/06/11 12:31:03;;;;;;;3.10;2.80;;;25.10;43.80;;;;;;4982923;28;20207;-51
2021/06/11 12:33:29;;;;;;;3.15;2.95;;;25.10;43.90;;;;;;4991453;28;20731;-47
2021/06/11 12:35:55;;;;;;;6.07;3.40;;;25.10;43.80;;;;;;4991183;28;20203;-53
2021/06/11 12:38:21;;;;;;;5.25;3.15;;;25.20;44.20;;;;;;4990323;28;20258;-48